^^
Saratoga-Weather Station Historical Data
Daily Summary for May 9, 2021 Units:  Both    English   Metric
Daily Weekly Monthly Yearly Custom
  High: Low: Average:
Temperature: 81.1 °F /  27.3 °C 59.5 °F /  15.3 °C 70.3 °F /  21.3 °C
Dew Point: 62.2 °F /  16.8 °C 57.7 °F /  14.3 °C 60.1 °F /  15.6 °C
Humidity: 95% 48% 72%
Wind Speed: 8.1mph /  13km/h - 1.5mph /  2.4km/h
Wind Gust: 9mph /  14.5km/h - -
Wind- - SW
Pressure: 30.1 in /  1020.7 hPa 30.1 in /  1018.3 hPa -
Precipitation: 0 in /  0.0 mm    
Historical Graphs
 
 
Tabular Data for May 9, 2021
Time Temperature Dew Point Pressure Wind Wind Speed Wind Gust Humidity Rainfall Rate (Hourly) solar
00:04 63.3 °F /  17.4 °C 61.9 °F /  16.6 °C 30.1in /  1020.3hPa Calm     95% 0in /  0.0mm 0 W/m2
00:09 63.3 °F /  17.4 °C 61.9 °F /  16.6 °C 30.1in /  1020.3hPa Calm     95% 0in /  0.0mm 0 W/m2
00:14 63.1 °F /  17.3 °C 61.7 °F /  16.5 °C 30.1in /  1020.3hPa Calm     95% 0in /  0.0mm 0 W/m2
00:19 63.1 °F /  17.3 °C 61.7 °F /  16.5 °C 30.1in /  1020.7hPa Calm     95% 0in /  0.0mm 0 W/m2
00:24 63.1 °F /  17.3 °C 61.7 °F /  16.5 °C 30.1in /  1020.7hPa Calm     95% 0in /  0.0mm 0 W/m2
00:29 63.1 °F /  17.3 °C 61.7 °F /  16.5 °C 30.1in /  1020.3hPa Calm     95% 0in /  0.0mm 0 W/m2
00:34 63.1 °F /  17.3 °C 61.7 °F /  16.5 °C 30.1in /  1020.3hPa Calm     95% 0in /  0.0mm 0 W/m2
00:39 63.1 °F /  17.3 °C 61.7 °F /  16.5 °C 30.1in /  1020.3hPa Calm     95% 0in /  0.0mm 0 W/m2
00:44 63.1 °F /  17.3 °C 61.7 °F /  16.5 °C 30.1in /  1020.3hPa Calm     95% 0in /  0.0mm 0 W/m2
00:49 63.1 °F /  17.3 °C 61.7 °F /  16.5 °C 30.1in /  1020.3hPa Calm     95% 0in /  0.0mm 0 W/m2
00:54 63 °F /  17.2 °C 61.5 °F /  16.4 °C 30.1in /  1020.3hPa Calm     95% 0in /  0.0mm 0 W/m2
00:59 62.8 °F /  17.1 °C 61.3 °F /  16.3 °C 30.1in /  1020.3hPa WSW 0.9mph /  1.4km/h 2mph /  3.2km/h 95% 0in /  0.0mm 0 W/m2
01:04 62.8 °F /  17.1 °C 61.3 °F /  16.3 °C 30.1in /  1020.3hPa Calm     95% 0in /  0.0mm 0 W/m2
01:09 62.4 °F /  16.9 °C 61 °F /  16.1 °C 30.1in /  1020.3hPa Calm     95% 0in /  0.0mm 0 W/m2
01:14 62.4 °F /  16.9 °C 61 °F /  16.1 °C 30.1in /  1020.3hPa Calm     95% 0in /  0.0mm 0 W/m2
01:19 62.4 °F /  16.9 °C 61 °F /  16.1 °C 30.1in /  1020.3hPa Calm     95% 0in /  0.0mm 0 W/m2
01:24 62.2 °F /  16.8 °C 60.8 °F /  16 °C 30.1in /  1020.3hPa Calm     95% 0in /  0.0mm 0 W/m2
01:29 62.2 °F /  16.8 °C 60.8 °F /  16 °C 30.1in /  1020.3hPa Calm     95% 0in /  0.0mm 0 W/m2
01:34 62.2 °F /  16.8 °C 60.8 °F /  16 °C 30.1in /  1020.0hPa Calm     95% 0in /  0.0mm 0 W/m2
01:39 62.2 °F /  16.8 °C 60.8 °F /  16 °C 30.1in /  1020.3hPa Calm     95% 0in /  0.0mm 0 W/m2
01:44 62.2 °F /  16.8 °C 60.8 °F /  16 °C 30.1in /  1020.0hPa Calm     95% 0in /  0.0mm 0 W/m2
01:49 62.2 °F /  16.8 °C 60.8 °F /  16 °C 30.1in /  1020.0hPa Calm   2mph /  3.2km/h 95% 0in /  0.0mm 0 W/m2
01:54 62.1 °F /  16.7 °C 60.6 °F /  15.9 °C 30.1in /  1020.0hPa Calm   1mph /  1.6km/h 95% 0in /  0.0mm 0 W/m2
01:59 62.1 °F /  16.7 °C 60.6 °F /  15.9 °C 30.1in /  1020.0hPa Calm   2mph /  3.2km/h 95% 0in /  0.0mm 0 W/m2
02:04 62.1 °F /  16.7 °C 60.6 °F /  15.9 °C 30.1in /  1020.0hPa Calm   1mph /  1.6km/h 95% 0in /  0.0mm 0 W/m2
02:09 62.1 °F /  16.7 °C 60.6 °F /  15.9 °C 30.1in /  1020.0hPa Calm   2mph /  3.2km/h 95% 0in /  0.0mm 0 W/m2
02:14 62.2 °F /  16.8 °C 60.8 °F /  16 °C 30.1in /  1020.0hPa Calm     95% 0in /  0.0mm 0 W/m2
02:19 62.2 °F /  16.8 °C 60.4 °F /  15.8 °C 30.1in /  1020.0hPa Calm     94% 0in /  0.0mm 0 W/m2
02:24 62.2 °F /  16.8 °C 60.4 °F /  15.8 °C 30.1in /  1020.0hPa Calm     94% 0in /  0.0mm 0 W/m2
02:29 62.2 °F /  16.8 °C 60.4 °F /  15.8 °C 30.1in /  1020.0hPa Calm     94% 0in /  0.0mm 0 W/m2
02:34 62.2 °F /  16.8 °C 60.4 °F /  15.8 °C 30.1in /  1020.0hPa Calm     94% 0in /  0.0mm 0 W/m2
02:39 62.2 °F /  16.8 °C 60.4 °F /  15.8 °C 30.1in /  1020.0hPa Calm     94% 0in /  0.0mm 0 W/m2
02:44 62.2 °F /  16.8 °C 60.4 °F /  15.8 °C 30.1in /  1020.0hPa Calm     94% 0in /  0.0mm 0 W/m2
02:49 62.2 °F /  16.8 °C 60.4 °F /  15.8 °C 30.1in /  1020.0hPa Calm     94% 0in /  0.0mm 0 W/m2
02:54 62.2 °F /  16.8 °C 60.4 °F /  15.8 °C 30.1in /  1020.0hPa Calm     94% 0in /  0.0mm 0 W/m2
02:59 62.1 °F /  16.7 °C 60.3 °F /  15.7 °C 30.1in /  1020.0hPa Calm     94% 0in /  0.0mm 0 W/m2
03:04 62.1 °F /  16.7 °C 60.3 °F /  15.7 °C 30.1in /  1020.0hPa Calm     94% 0in /  0.0mm 0 W/m2
03:09 61.9 °F /  16.6 °C 60.1 °F /  15.6 °C 30.1in /  1020.0hPa Calm     94% 0in /  0.0mm 0 W/m2
03:14 61.7 °F /  16.5 °C 59.7 °F /  15.4 °C 30.1in /  1020.0hPa Calm     93% 0in /  0.0mm 0 W/m2
03:20 61.5 °F /  16.4 °C 59.5 °F /  15.3 °C 30.1in /  1020.0hPa Calm     93% 0in /  0.0mm 0 W/m2
03:25 61.5 °F /  16.4 °C 59.5 °F /  15.3 °C 30.1in /  1020.0hPa Calm     93% 0in /  0.0mm 0 W/m2
03:30 61.3 °F /  16.3 °C 59.5 °F /  15.3 °C 30.1in /  1020.0hPa Calm     94% 0in /  0.0mm 0 W/m2
03:35 61.3 °F /  16.3 °C 59.5 °F /  15.3 °C 30.1in /  1020.0hPa Calm     94% 0in /  0.0mm 0 W/m2
03:40 61.2 °F /  16.2 °C 59.2 °F /  15.1 °C 30.1in /  1020.0hPa Calm     93% 0in /  0.0mm 0 W/m2
03:45 61.2 °F /  16.2 °C 59.4 °F /  15.2 °C 30.1in /  1020.0hPa Calm     94% 0in /  0.0mm 0 W/m2
03:50 61 °F /  16.1 °C 59.2 °F /  15.1 °C 30.1in /  1020.0hPa Calm     94% 0in /  0.0mm 0 W/m2
03:55 61 °F /  16.1 °C 59.2 °F /  15.1 °C 30.1in /  1020.0hPa Calm     94% 0in /  0.0mm 0 W/m2
04:00 61 °F /  16.1 °C 59.2 °F /  15.1 °C 30.1in /  1020.0hPa Calm     94% 0in /  0.0mm 0 W/m2
04:05 60.8 °F /  16 °C 59 °F /  15 °C 30.1in /  1020.0hPa Calm     94% 0in /  0.0mm 0 W/m2
04:10 60.8 °F /  16 °C 59 °F /  15 °C 30.1in /  1020.0hPa Calm     94% 0in /  0.0mm 0 W/m2
04:15 60.8 °F /  16 °C 59 °F /  15 °C 30.1in /  1020.0hPa Calm     94% 0in /  0.0mm 0 W/m2
04:20 60.8 °F /  16 °C 59 °F /  15 °C 30.1in /  1020.0hPa West 0.9mph /  1.4km/h 2mph /  3.2km/h 94% 0in /  0.0mm 0 W/m2
04:25 60.8 °F /  16 °C 59 °F /  15 °C 30.1in /  1020.0hPa Calm     94% 0in /  0.0mm 0 W/m2
04:30 60.8 °F /  16 °C 59 °F /  15 °C 30.1in /  1020.0hPa West 2mph /  3.2km/h 2mph /  3.2km/h 94% 0in /  0.0mm 0 W/m2
04:35 60.8 °F /  16 °C 59 °F /  15 °C 30.1in /  1020.0hPa Calm     94% 0in /  0.0mm 0 W/m2
04:40 60.8 °F /  16 °C 59 °F /  15 °C 30.1in /  1020.0hPa Calm     94% 0in /  0.0mm 0 W/m2
04:45 60.6 °F /  15.9 °C 58.8 °F /  14.9 °C 30.1in /  1020.0hPa Calm     94% 0in /  0.0mm 0 W/m2
04:50 60.6 °F /  15.9 °C 58.8 °F /  14.9 °C 30.1in /  1020.0hPa Calm     94% 0in /  0.0mm 0 W/m2
04:55 60.6 °F /  15.9 °C 58.8 °F /  14.9 °C 30.1in /  1020.0hPa Calm     94% 0in /  0.0mm 0 W/m2
05:00 60.4 °F /  15.8 °C 58.6 °F /  14.8 °C 30.1in /  1020.0hPa Calm     94% 0in /  0.0mm 0 W/m2
05:05 60.4 °F /  15.8 °C 58.6 °F /  14.8 °C 30.1in /  1020.0hPa Calm     94% 0in /  0.0mm 0 W/m2
05:10 60.3 °F /  15.7 °C 58.5 °F /  14.7 °C 30.1in /  1020.0hPa Calm     94% 0in /  0.0mm 0 W/m2
05:15 60.3 °F /  15.7 °C 58.5 °F /  14.7 °C 30.1in /  1020.0hPa Calm     94% 0in /  0.0mm 0 W/m2
05:20 60.1 °F /  15.6 °C 58.3 °F /  14.6 °C 30.1in /  1020.0hPa Calm     94% 0in /  0.0mm 0 W/m2
05:25 59.9 °F /  15.5 °C 58.1 °F /  14.5 °C 30.1in /  1020.0hPa Calm     94% 0in /  0.0mm 0 W/m2
05:30 59.7 °F /  15.4 °C 57.9 °F /  14.4 °C 30.1in /  1020.0hPa Calm   1mph /  1.6km/h 94% 0in /  0.0mm 0 W/m2
05:35 59.7 °F /  15.4 °C 57.9 °F /  14.4 °C 30.1in /  1020.0hPa Calm     94% 0in /  0.0mm 5 W/m2
05:40 59.7 °F /  15.4 °C 57.9 °F /  14.4 °C 30.1in /  1020.0hPa Calm     94% 0in /  0.0mm 7 W/m2
05:45 59.5 °F /  15.3 °C 57.7 °F /  14.3 °C 30.1in /  1020.0hPa Calm     94% 0in /  0.0mm 11 W/m2
05:50 59.7 °F /  15.4 °C 57.9 °F /  14.4 °C 30.1in /  1020.0hPa Calm     94% 0in /  0.0mm 16 W/m2
05:55 59.7 °F /  15.4 °C 57.9 °F /  14.4 °C 30.1in /  1020.0hPa Calm   1mph /  1.6km/h 94% 0in /  0.0mm 18 W/m2
06:00 59.7 °F /  15.4 °C 57.9 °F /  14.4 °C 30.1in /  1020.0hPa Calm     94% 0in /  0.0mm 19 W/m2
06:05 59.7 °F /  15.4 °C 57.9 °F /  14.4 °C 30.1in /  1020.0hPa Calm     94% 0in /  0.0mm 23 W/m2
06:10 59.7 °F /  15.4 °C 57.9 °F /  14.4 °C 30.1in /  1020.0hPa Calm     94% 0in /  0.0mm 28 W/m2
06:15 59.7 °F /  15.4 °C 57.9 °F /  14.4 °C 30.1in /  1020.0hPa Calm     94% 0in /  0.0mm 35 W/m2
06:20 59.7 °F /  15.4 °C 57.9 °F /  14.4 °C 30.1in /  1020.0hPa Calm     94% 0in /  0.0mm 42 W/m2
06:25 59.7 °F /  15.4 °C 57.9 °F /  14.4 °C 30.1in /  1020.0hPa Calm     94% 0in /  0.0mm 49 W/m2
06:30 59.7 °F /  15.4 °C 57.9 °F /  14.4 °C 30.1in /  1020.0hPa Calm     94% 0in /  0.0mm 54 W/m2
06:35 59.9 °F /  15.5 °C 58.1 °F /  14.5 °C 30.1in /  1020.0hPa Calm     94% 0in /  0.0mm 53 W/m2
06:40 59.9 °F /  15.5 °C 58.1 °F /  14.5 °C 30.1in /  1020.0hPa Calm     94% 0in /  0.0mm 49 W/m2
06:45 60.1 °F /  15.6 °C 58.3 °F /  14.6 °C 30.1in /  1020.0hPa Calm   2mph /  3.2km/h 94% 0in /  0.0mm 40 W/m2
06:50 60.3 °F /  15.7 °C 58.8 °F /  14.9 °C 30.1in /  1020.3hPa Calm     95% 0in /  0.0mm 44 W/m2
06:55 60.4 °F /  15.8 °C 58.6 °F /  14.8 °C 30.1in /  1020.3hPa Calm   2mph /  3.2km/h 94% 0in /  0.0mm 53 W/m2
07:00 60.6 °F /  15.9 °C 58.8 °F /  14.9 °C 30.1in /  1020.3hPa NE 0.9mph /  1.4km/h 2mph /  3.2km/h 94% 0in /  0.0mm 54 W/m2
07:05 60.8 °F /  16 °C 59 °F /  15 °C 30.1in /  1020.3hPa ESE 0.9mph /  1.4km/h 3mph /  4.8km/h 94% 0in /  0.0mm 58 W/m2
07:10 61 °F /  16.1 °C 59 °F /  15 °C 30.1in /  1020.3hPa East 2mph /  3.2km/h 3mph /  4.8km/h 93% 0in /  0.0mm 63 W/m2
07:15 61.3 °F /  16.3 °C 59.4 °F /  15.2 °C 30.1in /  1020.3hPa East 2.9mph /  4.7km/h 4mph /  6.4km/h 93% 0in /  0.0mm 67 W/m2
07:20 61.5 °F /  16.4 °C 59.5 °F /  15.3 °C 30.1in /  1020.3hPa East 2.9mph /  4.7km/h 4mph /  6.4km/h 93% 0in /  0.0mm 70 W/m2
07:25 61.5 °F /  16.4 °C 59.2 °F /  15.1 °C 30.1in /  1020.3hPa East 2mph /  3.2km/h 3mph /  4.8km/h 92% 0in /  0.0mm 74 W/m2
07:30 61.7 °F /  16.5 °C 59.4 °F /  15.2 °C 30.1in /  1020.3hPa East 2mph /  3.2km/h 3mph /  4.8km/h 92% 0in /  0.0mm 76 W/m2
07:35 61.9 °F /  16.6 °C 59.5 °F /  15.3 °C 30.1in /  1020.3hPa East 2mph /  3.2km/h 2mph /  3.2km/h 92% 0in /  0.0mm 83 W/m2
07:40 61.9 °F /  16.6 °C 59.2 °F /  15.1 °C 30.1in /  1020.3hPa Calm   2mph /  3.2km/h 91% 0in /  0.0mm 139 W/m2
07:45 62.2 °F /  16.8 °C 59.5 °F /  15.3 °C 30.1in /  1020.3hPa East 0.9mph /  1.4km/h 1mph /  1.6km/h 91% 0in /  0.0mm 199 W/m2
07:50 62.6 °F /  17 °C 59.9 °F /  15.5 °C 30.1in /  1020.7hPa Calm   2mph /  3.2km/h 91% 0in /  0.0mm 209 W/m2
07:55 63.1 °F /  17.3 °C 59.9 °F /  15.5 °C 30.1in /  1020.7hPa Calm   2mph /  3.2km/h 89% 0in /  0.0mm 218 W/m2
08:00 63.7 °F /  17.6 °C 59.7 °F /  15.4 °C 30.1in /  1020.7hPa Calm   1mph /  1.6km/h 87% 0in /  0.0mm 230 W/m2
08:05 64 °F /  17.8 °C 59.4 °F /  15.2 °C 30.1in /  1020.7hPa ENE 2mph /  3.2km/h 2mph /  3.2km/h 85% 0in /  0.0mm 199 W/m2
08:10 64.6 °F /  18.1 °C 59.7 °F /  15.4 °C 30.1in /  1020.7hPa Calm   1mph /  1.6km/h 84% 0in /  0.0mm 137 W/m2
08:15 64.9 °F /  18.3 °C 59.7 °F /  15.4 °C 30.1in /  1020.3hPa Calm   1mph /  1.6km/h 83% 0in /  0.0mm 98 W/m2
08:20 65.1 °F /  18.4 °C 59.9 °F /  15.5 °C 30.1in /  1020.3hPa Calm   1mph /  1.6km/h 83% 0in /  0.0mm 98 W/m2
08:25 65.5 °F /  18.6 °C 59.9 °F /  15.5 °C 30.1in /  1020.7hPa ESE 0.9mph /  1.4km/h 3mph /  4.8km/h 82% 0in /  0.0mm 100 W/m2
08:30 65.8 °F /  18.8 °C 60.3 °F /  15.7 °C 30.1in /  1020.7hPa NE 0.9mph /  1.4km/h 3mph /  4.8km/h 82% 0in /  0.0mm 100 W/m2
08:35 66.2 °F /  19 °C 60.3 °F /  15.7 °C 30.1in /  1020.7hPa Calm     81% 0in /  0.0mm 100 W/m2
08:40 66.4 °F /  19.1 °C 60.4 °F /  15.8 °C 30.1in /  1020.7hPa WNW 0.9mph /  1.4km/h 3mph /  4.8km/h 81% 0in /  0.0mm 102 W/m2
08:45 66 °F /  18.9 °C 60.1 °F /  15.6 °C 30.1in /  1020.7hPa WNW 0.9mph /  1.4km/h 2mph /  3.2km/h 81% 0in /  0.0mm 104 W/m2
08:50 66.4 °F /  19.1 °C 60.4 °F /  15.8 °C 30.1in /  1020.7hPa West 0.9mph /  1.4km/h 2mph /  3.2km/h 81% 0in /  0.0mm 104 W/m2
08:55 66.6 °F /  19.2 °C 60.3 °F /  15.7 °C 30.1in /  1020.7hPa WNW 2.9mph /  4.7km/h 3mph /  4.8km/h 80% 0in /  0.0mm 105 W/m2
09:00 66.6 °F /  19.2 °C 59.9 °F /  15.5 °C 30.1in /  1020.7hPa WNW 2mph /  3.2km/h 4mph /  6.4km/h 79% 0in /  0.0mm 104 W/m2
09:05 66.7 °F /  19.3 °C 60.1 °F /  15.6 °C 30.1in /  1020.7hPa West 2mph /  3.2km/h 3mph /  4.8km/h 79% 0in /  0.0mm 141 W/m2
09:10 66.7 °F /  19.3 °C 59.7 °F /  15.4 °C 30.1in /  1020.7hPa NW 2mph /  3.2km/h 4mph /  6.4km/h 78% 0in /  0.0mm 271 W/m2
09:15 67.1 °F /  19.5 °C 60.8 °F /  16 °C 30.1in /  1020.7hPa Calm   3mph /  4.8km/h 80% 0in /  0.0mm 422 W/m2
09:20 67.6 °F /  19.8 °C 61 °F /  16.1 °C 30.1in /  1020.7hPa SW 2mph /  3.2km/h 2mph /  3.2km/h 79% 0in /  0.0mm 452 W/m2
09:25 68.4 °F /  20.2 °C 60.8 °F /  16 °C 30.1in /  1020.7hPa Calm   3mph /  4.8km/h 77% 0in /  0.0mm 462 W/m2
09:30 68.5 °F /  20.3 °C 60.6 °F /  15.9 °C 30.1in /  1020.7hPa Calm   3mph /  4.8km/h 76% 0in /  0.0mm 475 W/m2
09:35 68.7 °F /  20.4 °C 60.1 °F /  15.6 °C 30.1in /  1020.7hPa Calm   1mph /  1.6km/h 74% 0in /  0.0mm 492 W/m2
09:40 69.3 °F /  20.7 °C 61.3 °F /  16.3 °C 30.1in /  1020.7hPa NNW 0.9mph /  1.4km/h 3mph /  4.8km/h 76% 0in /  0.0mm 501 W/m2
09:45 69.4 °F /  20.8 °C 61.2 °F /  16.2 °C 30.1in /  1020.7hPa East 0.9mph /  1.4km/h 2mph /  3.2km/h 75% 0in /  0.0mm 520 W/m2
09:50 70 °F /  21.1 °C 61 °F /  16.1 °C 30.1in /  1020.7hPa ESE 2mph /  3.2km/h 4mph /  6.4km/h 73% 0in /  0.0mm 536 W/m2
09:55 70.5 °F /  21.4 °C 61 °F /  16.1 °C 30.1in /  1020.7hPa ENE 0.9mph /  1.4km/h 3mph /  4.8km/h 72% 0in /  0.0mm 538 W/m2
10:00 70.7 °F /  21.5 °C 60.8 °F /  16 °C 30.1in /  1020.7hPa Calm   4mph /  6.4km/h 71% 0in /  0.0mm 561 W/m2
10:05 71.1 °F /  21.7 °C 61.2 °F /  16.2 °C 30.1in /  1020.7hPa Calm   3mph /  4.8km/h 71% 0in /  0.0mm 116 W/m2
10:10 71.2 °F /  21.8 °C 61 °F /  16.1 °C 30.1in /  1020.7hPa ESE 4mph /  6.4km/h 4mph /  6.4km/h 70% 0in /  0.0mm 148 W/m2
10:15 71.4 °F /  21.9 °C 61.2 °F /  16.2 °C 30.1in /  1020.7hPa SE 2.9mph /  4.7km/h 3mph /  4.8km/h 70% 0in /  0.0mm 594 W/m2
10:20 71.6 °F /  22 °C 60.4 °F /  15.8 °C 30.1in /  1020.7hPa East 2mph /  3.2km/h 4mph /  6.4km/h 68% 0in /  0.0mm 608 W/m2
10:25 71.8 °F /  22.1 °C 61.5 °F /  16.4 °C 30.1in /  1020.7hPa ENE 2.9mph /  4.7km/h 3mph /  4.8km/h 70% 0in /  0.0mm 631 W/m2
10:30 72 °F /  22.2 °C 60.8 °F /  16 °C 30.1in /  1020.7hPa ESE 2mph /  3.2km/h 8mph /  12.9km/h 68% 0in /  0.0mm 633 W/m2
10:35 72.1 °F /  22.3 °C 60.6 °F /  15.9 °C 30.1in /  1020.7hPa ESE 0.9mph /  1.4km/h 2mph /  3.2km/h 67% 0in /  0.0mm 649 W/m2
10:40 72.5 °F /  22.5 °C 60.1 °F /  15.6 °C 30.1in /  1020.7hPa East 0.9mph /  1.4km/h 8mph /  12.9km/h 65% 0in /  0.0mm 666 W/m2
10:46 72.5 °F /  22.5 °C 60.1 °F /  15.6 °C 30.1in /  1020.7hPa North 2mph /  3.2km/h 7mph /  11.3km/h 65% 0in /  0.0mm 677 W/m2
10:51 72.7 °F /  22.6 °C 61.2 °F /  16.2 °C 30.1in /  1020.7hPa ESE 2mph /  3.2km/h 4mph /  6.4km/h 67% 0in /  0.0mm 670 W/m2
10:56 73 °F /  22.8 °C 61.5 °F /  16.4 °C 30.1in /  1020.7hPa East 2mph /  3.2km/h 7mph /  11.3km/h 67% 0in /  0.0mm 726 W/m2
11:01 73.8 °F /  23.2 °C 60.8 °F /  16 °C 30.1in /  1020.7hPa ENE 2mph /  3.2km/h 6mph /  9.7km/h 64% 0in /  0.0mm 703 W/m2
11:06 74.1 °F /  23.4 °C 60.8 °F /  16 °C 30.1in /  1020.7hPa West 0.9mph /  1.4km/h 2mph /  3.2km/h 63% 0in /  0.0mm 717 W/m2
11:11 74.1 °F /  23.4 °C 58.8 °F /  14.9 °C 30.1in /  1020.7hPa NNW 0.9mph /  1.4km/h 6mph /  9.7km/h 59% 0in /  0.0mm 719 W/m2
11:16 74.1 °F /  23.4 °C 57.9 °F /  14.4 °C 30.1in /  1020.7hPa West 4mph /  6.4km/h 6mph /  9.7km/h 57% 0in /  0.0mm 728 W/m2
11:21 73.8 °F /  23.2 °C 58.5 °F /  14.7 °C 30.1in /  1020.7hPa WNW 2mph /  3.2km/h 6mph /  9.7km/h 59% 0in /  0.0mm 738 W/m2
11:26 73.9 °F /  23.3 °C 59.2 °F /  15.1 °C 30.1in /  1020.7hPa SW 0.9mph /  1.4km/h 4mph /  6.4km/h 60% 0in /  0.0mm 729 W/m2
11:31 74.1 °F /  23.4 °C 59.4 °F /  15.2 °C 30.1in /  1020.7hPa SW 0.9mph /  1.4km/h 6mph /  9.7km/h 60% 0in /  0.0mm 724 W/m2
11:36 74.8 °F /  23.8 °C 59.5 °F /  15.3 °C 30.1in /  1020.7hPa NW 4mph /  6.4km/h 5mph /  8km/h 59% 0in /  0.0mm 756 W/m2
11:41 74.8 °F /  23.8 °C 60.1 °F /  15.6 °C 30.1in /  1020.7hPa Calm   6mph /  9.7km/h 60% 0in /  0.0mm 793 W/m2
11:46 75 °F /  23.9 °C 59.7 °F /  15.4 °C 30.1in /  1020.7hPa North 2mph /  3.2km/h 2mph /  3.2km/h 59% 0in /  0.0mm 803 W/m2
11:51 75.6 °F /  24.2 °C 59.7 °F /  15.4 °C 30.1in /  1020.3hPa NW 2.9mph /  4.7km/h 8mph /  12.9km/h 58% 0in /  0.0mm 705 W/m2
11:56 75.6 °F /  24.2 °C 60.3 °F /  15.7 °C 30.1in /  1020.3hPa ENE 2mph /  3.2km/h 5mph /  8km/h 59% 0in /  0.0mm 772 W/m2
12:01 75.7 °F /  24.3 °C 59.9 °F /  15.5 °C 30.1in /  1020.7hPa NE 0.9mph /  1.4km/h 8mph /  12.9km/h 58% 0in /  0.0mm 805 W/m2
12:06 76.1 °F /  24.5 °C 60.8 °F /  16 °C 30.1in /  1020.3hPa NW 0.9mph /  1.4km/h 5mph /  8km/h 59% 0in /  0.0mm 786 W/m2
12:11 76.3 °F /  24.6 °C 62.2 °F /  16.8 °C 30.1in /  1020.3hPa NNE 0.9mph /  1.4km/h 5mph /  8km/h 62% 0in /  0.0mm 765 W/m2
12:16 76.6 °F /  24.8 °C 61.2 °F /  16.2 °C 30.1in /  1020.3hPa WNW 2mph /  3.2km/h 3mph /  4.8km/h 59% 0in /  0.0mm 828 W/m2
12:21 76.6 °F /  24.8 °C 60.8 °F /  16 °C 30.1in /  1020.3hPa North 2mph /  3.2km/h 2mph /  3.2km/h 58% 0in /  0.0mm 868 W/m2
12:26 77.2 °F /  25.1 °C 61.7 °F /  16.5 °C 30.1in /  1020.3hPa SE 0.9mph /  1.4km/h 4mph /  6.4km/h 59% 0in /  0.0mm 851 W/m2
12:31 77.9 °F /  25.5 °C 60.4 °F /  15.8 °C 30.1in /  1020.3hPa NE 2mph /  3.2km/h 5mph /  8km/h 55% 0in /  0.0mm 902 W/m2
12:36 77.7 °F /  25.4 °C 59.7 °F /  15.4 °C 30.1in /  1020.3hPa ENE 2.9mph /  4.7km/h 7mph /  11.3km/h 54% 0in /  0.0mm 248 W/m2
12:41 77.2 °F /  25.1 °C 61.3 °F /  16.3 °C 30.1in /  1020.3hPa Calm   1mph /  1.6km/h 58% 0in /  0.0mm 264 W/m2
12:46 76.6 °F /  24.8 °C 59.2 °F /  15.1 °C 30.1in /  1020.3hPa West 6mph /  9.7km/h 6mph /  9.7km/h 55% 0in /  0.0mm 299 W/m2
12:51 76.1 °F /  24.5 °C 58.3 °F /  14.6 °C 30.1in /  1020.3hPa SW 0.9mph /  1.4km/h 3mph /  4.8km/h 54% 0in /  0.0mm 295 W/m2
12:56 76.1 °F /  24.5 °C 59.2 °F /  15.1 °C 30.1in /  1020.3hPa NNW 2.9mph /  4.7km/h 5mph /  8km/h 56% 0in /  0.0mm 376 W/m2
13:01 76.5 °F /  24.7 °C 59.5 °F /  15.3 °C 30.1in /  1020.3hPa West 2.9mph /  4.7km/h 3mph /  4.8km/h 56% 0in /  0.0mm 388 W/m2
13:06 76.6 °F /  24.8 °C 59.2 °F /  15.1 °C 30.1in /  1020.3hPa West 2.9mph /  4.7km/h 4mph /  6.4km/h 55% 0in /  0.0mm 1027 W/m2
13:11 76.6 °F /  24.8 °C 58.8 °F /  14.9 °C 30.1in /  1020.3hPa NNW 4.9mph /  7.9km/h 7mph /  11.3km/h 54% 0in /  0.0mm 313 W/m2
13:16 76.6 °F /  24.8 °C 58.8 °F /  14.9 °C 30.1in /  1020.3hPa NNW 2mph /  3.2km/h 4mph /  6.4km/h 54% 0in /  0.0mm 895 W/m2
13:21 77.2 °F /  25.1 °C 58.3 °F /  14.6 °C 30.1in /  1020.3hPa NW 2mph /  3.2km/h 6mph /  9.7km/h 52% 0in /  0.0mm 998 W/m2
13:26 77.5 °F /  25.3 °C 59 °F /  15 °C 30.1in /  1020.0hPa NW 2mph /  3.2km/h 3mph /  4.8km/h 53% 0in /  0.0mm 972 W/m2
13:31 77.7 °F /  25.4 °C 59.2 °F /  15.1 °C 30.1in /  1020.0hPa WNW 4.9mph /  7.9km/h 9mph /  14.5km/h 53% 0in /  0.0mm 756 W/m2
13:36 77.4 °F /  25.2 °C 58.3 °F /  14.6 °C 30.1in /  1020.0hPa West 4mph /  6.4km/h 7mph /  11.3km/h 52% 0in /  0.0mm 939 W/m2
13:41 77.4 °F /  25.2 °C 58.3 °F /  14.6 °C 30.1in /  1020.0hPa NNE 2mph /  3.2km/h 4mph /  6.4km/h 52% 0in /  0.0mm 960 W/m2
13:46 78.1 °F /  25.6 °C 58.5 °F /  14.7 °C 30.1in /  1020.0hPa West 2.9mph /  4.7km/h 5mph /  8km/h 51% 0in /  0.0mm 911 W/m2
13:51 78.4 °F /  25.8 °C 58.3 °F /  14.6 °C 30.1in /  1020.0hPa WNW 4.9mph /  7.9km/h 9mph /  14.5km/h 50% 0in /  0.0mm 875 W/m2
13:56 78.3 °F /  25.7 °C 59.2 °F /  15.1 °C 30.1in /  1020.0hPa West 2.9mph /  4.7km/h 9mph /  14.5km/h 52% 0in /  0.0mm 937 W/m2
14:01 78.3 °F /  25.7 °C 58.6 °F /  14.8 °C 30.1in /  1020.0hPa NNW 2mph /  3.2km/h 4mph /  6.4km/h 51% 0in /  0.0mm 926 W/m2
14:06 78.4 °F /  25.8 °C 58.8 °F /  14.9 °C 30.1in /  1020.0hPa NNE 4.9mph /  7.9km/h 9mph /  14.5km/h 51% 0in /  0.0mm 988 W/m2
14:11 78.6 °F /  25.9 °C 59 °F /  15 °C 30.1in /  1019.6hPa WSW 4mph /  6.4km/h 4mph /  6.4km/h 51% 0in /  0.0mm 998 W/m2
14:16 78.4 °F /  25.8 °C 58.3 °F /  14.6 °C 30.1in /  1019.6hPa NNW 2mph /  3.2km/h 9mph /  14.5km/h 50% 0in /  0.0mm 290 W/m2
14:21 78.1 °F /  25.6 °C 59 °F /  15 °C 30.1in /  1019.6hPa WNW 4mph /  6.4km/h 8mph /  12.9km/h 52% 0in /  0.0mm 392 W/m2
14:26 77.7 °F /  25.4 °C 58.1 °F /  14.5 °C 30.1in /  1019.6hPa NNW 2.9mph /  4.7km/h 9mph /  14.5km/h 51% 0in /  0.0mm 362 W/m2
14:31 77.7 °F /  25.4 °C 59.2 °F /  15.1 °C 30.1in /  1019.6hPa WNW 4mph /  6.4km/h 6mph /  9.7km/h 53% 0in /  0.0mm 309 W/m2
14:36 77.7 °F /  25.4 °C 60.3 °F /  15.7 °C 30.1in /  1019.6hPa WSW 0.9mph /  1.4km/h 9mph /  14.5km/h 55% 0in /  0.0mm 940 W/m2
14:41 78.3 °F /  25.7 °C 59.7 °F /  15.4 °C 30.1in /  1019.6hPa WSW 2.9mph /  4.7km/h 7mph /  11.3km/h 53% 0in /  0.0mm 939 W/m2
14:46 77.9 °F /  25.5 °C 58.8 °F /  14.9 °C 30.1in /  1019.6hPa West 6mph /  9.7km/h 7mph /  11.3km/h 52% 0in /  0.0mm 325 W/m2
14:51 78.1 °F /  25.6 °C 59.5 °F /  15.3 °C 30.1in /  1019.6hPa NNW 0.9mph /  1.4km/h 4mph /  6.4km/h 53% 0in /  0.0mm 893 W/m2
14:56 78.4 °F /  25.8 °C 59.4 °F /  15.2 °C 30.1in /  1019.6hPa West 2mph /  3.2km/h 4mph /  6.4km/h 52% 0in /  0.0mm 911 W/m2
15:01 78.8 °F /  26 °C 58.6 °F /  14.8 °C 30.1in /  1019.6hPa ENE 2mph /  3.2km/h 5mph /  8km/h 50% 0in /  0.0mm 921 W/m2
15:06 79.2 °F /  26.2 °C 60.1 °F /  15.6 °C 30.1in /  1019.6hPa West 2.9mph /  4.7km/h 9mph /  14.5km/h 52% 0in /  0.0mm 860 W/m2
15:11 79.3 °F /  26.3 °C 59 °F /  15 °C 30.1in /  1019.6hPa SSW 0.9mph /  1.4km/h 6mph /  9.7km/h 50% 0in /  0.0mm 889 W/m2
15:16 79.3 °F /  26.3 °C 59 °F /  15 °C 30.1in /  1019.3hPa West 2mph /  3.2km/h 9mph /  14.5km/h 50% 0in /  0.0mm 868 W/m2
15:21 79.3 °F /  26.3 °C 60.3 °F /  15.7 °C 30.1in /  1019.6hPa NNE 2mph /  3.2km/h 6mph /  9.7km/h 52% 0in /  0.0mm 830 W/m2
15:26 79 °F /  26.1 °C 58.8 °F /  14.9 °C 30.1in /  1019.3hPa West 0.9mph /  1.4km/h 9mph /  14.5km/h 50% 0in /  0.0mm 216 W/m2
15:31 78.6 °F /  25.9 °C 59 °F /  15 °C 30.1in /  1019.3hPa Calm   4mph /  6.4km/h 51% 0in /  0.0mm 218 W/m2
15:36 78.4 °F /  25.8 °C 59.4 °F /  15.2 °C 30.1in /  1019.3hPa East 2mph /  3.2km/h 8mph /  12.9km/h 52% 0in /  0.0mm 853 W/m2
15:41 78.8 °F /  26 °C 60.3 °F /  15.7 °C 30.1in /  1019.3hPa ENE 0.9mph /  1.4km/h 4mph /  6.4km/h 53% 0in /  0.0mm 687 W/m2
15:46 79.2 °F /  26.2 °C 59.5 °F /  15.3 °C 30.1in /  1019.3hPa WNW 2.9mph /  4.7km/h 6mph /  9.7km/h 51% 0in /  0.0mm 768 W/m2
15:51 79 °F /  26.1 °C 58.8 °F /  14.9 °C 30.1in /  1019.3hPa WNW 0.9mph /  1.4km/h 7mph /  11.3km/h 50% 0in /  0.0mm 796 W/m2
15:56 79 °F /  26.1 °C 59.4 °F /  15.2 °C 30.1in /  1019.3hPa WNW 4mph /  6.4km/h 6mph /  9.7km/h 51% 0in /  0.0mm 197 W/m2
16:01 78.8 °F /  26 °C 59.2 °F /  15.1 °C 30.1in /  1019.0hPa WNW 6.9mph /  11.1km/h 7mph /  11.3km/h 51% 0in /  0.0mm 239 W/m2
16:06 78.6 °F /  25.9 °C 60.6 °F /  15.9 °C 30.1in /  1019.3hPa WNW 2.9mph /  4.7km/h 5mph /  8km/h 54% 0in /  0.0mm 874 W/m2
16:11 79 °F /  26.1 °C 59.9 °F /  15.5 °C 30.1in /  1019.0hPa North 2.9mph /  4.7km/h 4mph /  6.4km/h 52% 0in /  0.0mm 853 W/m2
16:16 79.3 °F /  26.3 °C 60.3 °F /  15.7 °C 30.1in /  1019.0hPa West 2mph /  3.2km/h 4mph /  6.4km/h 52% 0in /  0.0mm 209 W/m2
16:21 79.5 °F /  26.4 °C 60.8 °F /  16 °C 30.1in /  1019.0hPa North 2mph /  3.2km/h 3mph /  4.8km/h 53% 0in /  0.0mm 202 W/m2
16:26 79.3 °F /  26.3 °C 59.7 °F /  15.4 °C 30.1in /  1019.0hPa West 4mph /  6.4km/h 4mph /  6.4km/h 51% 0in /  0.0mm 260 W/m2
16:31 78.8 °F /  26 °C 58.6 °F /  14.8 °C 30.1in /  1019.0hPa NW 2mph /  3.2km/h 6mph /  9.7km/h 50% 0in /  0.0mm 269 W/m2
16:36 79 °F /  26.1 °C 59.9 °F /  15.5 °C 30.1in /  1019.0hPa WNW 0.9mph /  1.4km/h 2mph /  3.2km/h 52% 0in /  0.0mm 712 W/m2
16:41 79.5 °F /  26.4 °C 58.6 °F /  14.8 °C 30.1in /  1019.0hPa ENE 2mph /  3.2km/h 6mph /  9.7km/h 49% 0in /  0.0mm 714 W/m2
16:46 80.2 °F /  26.8 °C 59.4 °F /  15.2 °C 30.1in /  1019.0hPa NW 2mph /  3.2km/h 5mph /  8km/h 49% 0in /  0.0mm 719 W/m2
16:51 81 °F /  27.2 °C 60.6 °F /  15.9 °C 30.1in /  1019.0hPa North 0.9mph /  1.4km/h 3mph /  4.8km/h 50% 0in /  0.0mm 729 W/m2
16:56 81.1 °F /  27.3 °C 59.5 °F /  15.3 °C 30.1in /  1019.0hPa ESE 0.9mph /  1.4km/h 8mph /  12.9km/h 48% 0in /  0.0mm 679 W/m2
17:01 80.8 °F /  27.1 °C 59.9 °F /  15.5 °C 30.1in /  1019.0hPa NW 2mph /  3.2km/h 9mph /  14.5km/h 49% 0in /  0.0mm 181 W/m2
17:06 79.9 °F /  26.6 °C 59 °F /  15 °C 30.1in /  1019.0hPa NNW 2.9mph /  4.7km/h 6mph /  9.7km/h 49% 0in /  0.0mm 163 W/m2
17:11 79.3 °F /  26.3 °C 59.7 °F /  15.4 °C 30.1in /  1019.0hPa NE 0.9mph /  1.4km/h 2mph /  3.2km/h 51% 0in /  0.0mm 151 W/m2
17:16 79.2 °F /  26.2 °C 60.1 °F /  15.6 °C 30.1in /  1019.0hPa WNW 2.9mph /  4.7km/h 5mph /  8km/h 52% 0in /  0.0mm 127 W/m2
17:21 78.6 °F /  25.9 °C 59 °F /  15 °C 30.1in /  1019.0hPa WNW 0.9mph /  1.4km/h 2mph /  3.2km/h 51% 0in /  0.0mm 144 W/m2
17:26 78.6 °F /  25.9 °C 59.5 °F /  15.3 °C 30.1in /  1019.0hPa SW 0.9mph /  1.4km/h 2mph /  3.2km/h 52% 0in /  0.0mm 149 W/m2
17:32 78.4 °F /  25.8 °C 59.4 °F /  15.2 °C 30.1in /  1019.0hPa West 4mph /  6.4km/h 4mph /  6.4km/h 52% 0in /  0.0mm 163 W/m2
17:37 78.3 °F /  25.7 °C 59.2 °F /  15.1 °C 30.1in /  1019.0hPa West 2mph /  3.2km/h 5mph /  8km/h 52% 0in /  0.0mm 526 W/m2
17:42 78.6 °F /  25.9 °C 59.5 °F /  15.3 °C 30.1in /  1018.6hPa WNW 4mph /  6.4km/h 5mph /  8km/h 52% 0in /  0.0mm 559 W/m2
17:47 78.6 °F /  25.9 °C 59 °F /  15 °C 30.1in /  1018.6hPa WNW 4.9mph /  7.9km/h 5mph /  8km/h 51% 0in /  0.0mm 499 W/m2
17:52 79 °F /  26.1 °C 59.9 °F /  15.5 °C 30.1in /  1018.6hPa West 2mph /  3.2km/h 3mph /  4.8km/h 52% 0in /  0.0mm 570 W/m2
17:57 79.5 °F /  26.4 °C 59.7 °F /  15.4 °C 30.1in /  1018.6hPa West 2.9mph /  4.7km/h 6mph /  9.7km/h 51% 0in /  0.0mm 371 W/m2
18:02 79.7 °F /  26.5 °C 59.9 °F /  15.5 °C 30.1in /  1018.6hPa WSW 4.9mph /  7.9km/h 5mph /  8km/h 51% 0in /  0.0mm 483 W/m2
18:07 79.5 °F /  26.4 °C 58.6 °F /  14.8 °C 30.1in /  1018.6hPa WSW 2.9mph /  4.7km/h 6mph /  9.7km/h 49% 0in /  0.0mm 301 W/m2
18:12 79.5 °F /  26.4 °C 59.2 °F /  15.1 °C 30.1in /  1018.6hPa WSW 4mph /  6.4km/h 6mph /  9.7km/h 50% 0in /  0.0mm 455 W/m2
18:17 79.5 °F /  26.4 °C 60.4 °F /  15.8 °C 30.1in /  1018.6hPa WSW 2.9mph /  4.7km/h 6mph /  9.7km/h 52% 0in /  0.0mm 499 W/m2
18:22 79.5 °F /  26.4 °C 60.4 °F /  15.8 °C 30.1in /  1018.6hPa West 4mph /  6.4km/h 8mph /  12.9km/h 52% 0in /  0.0mm 381 W/m2
18:27 79 °F /  26.1 °C 59.4 °F /  15.2 °C 30.1in /  1018.6hPa West 2.9mph /  4.7km/h 6mph /  9.7km/h 51% 0in /  0.0mm 262 W/m2
18:32 78.6 °F /  25.9 °C 60.1 °F /  15.6 °C 30.1in /  1018.6hPa NW 2.9mph /  4.7km/h 7mph /  11.3km/h 53% 0in /  0.0mm 281 W/m2
18:37 78.6 °F /  25.9 °C 61.2 °F /  16.2 °C 30.1in /  1018.3hPa WNW 2mph /  3.2km/h 7mph /  11.3km/h 55% 0in /  0.0mm 378 W/m2
18:42 79 °F /  26.1 °C 61 °F /  16.1 °C 30.1in /  1018.6hPa WSW 4.9mph /  7.9km/h 6mph /  9.7km/h 54% 0in /  0.0mm 339 W/m2
18:47 78.6 °F /  25.9 °C 60.6 °F /  15.9 °C 30.1in /  1018.6hPa WNW 4mph /  6.4km/h 7mph /  11.3km/h 54% 0in /  0.0mm 186 W/m2
18:52 78.1 °F /  25.6 °C 60.6 °F /  15.9 °C 30.1in /  1018.6hPa WSW 4mph /  6.4km/h 6mph /  9.7km/h 55% 0in /  0.0mm 144 W/m2
18:57 77.4 °F /  25.2 °C 60.4 °F /  15.8 °C 30.1in /  1018.6hPa West 2.9mph /  4.7km/h 4mph /  6.4km/h 56% 0in /  0.0mm 135 W/m2
19:02 76.8 °F /  24.9 °C 60.4 °F /  15.8 °C 30.1in /  1018.6hPa WNW 0.9mph /  1.4km/h 4mph /  6.4km/h 57% 0in /  0.0mm 132 W/m2
19:07 76.6 °F /  24.8 °C 60.3 °F /  15.7 °C 30.1in /  1018.6hPa WSW 2mph /  3.2km/h 6mph /  9.7km/h 57% 0in /  0.0mm 223 W/m2
19:12 76.8 °F /  24.9 °C 60.4 °F /  15.8 °C 30.1in /  1018.6hPa WNW 2mph /  3.2km/h 5mph /  8km/h 57% 0in /  0.0mm 274 W/m2
19:17 77.4 °F /  25.2 °C 61 °F /  16.1 °C 30.1in /  1018.6hPa West 2.9mph /  4.7km/h 3mph /  4.8km/h 57% 0in /  0.0mm 267 W/m2
19:22 77.5 °F /  25.3 °C 60.6 °F /  15.9 °C 30.1in /  1018.6hPa WSW 2.9mph /  4.7km/h 5mph /  8km/h 56% 0in /  0.0mm 193 W/m2
19:27 77.5 °F /  25.3 °C 60.1 °F /  15.6 °C 30.1in /  1018.6hPa WNW 2mph /  3.2km/h 4mph /  6.4km/h 55% 0in /  0.0mm 93 W/m2
19:32 77.4 °F /  25.2 °C 61.3 °F /  16.3 °C 30.1in /  1018.6hPa West 0.9mph /  1.4km/h 3mph /  4.8km/h 58% 0in /  0.0mm 107 W/m2
19:37 77 °F /  25 °C 62.1 °F /  16.7 °C 30.1in /  1018.6hPa West 0.9mph /  1.4km/h 2mph /  3.2km/h 60% 0in /  0.0mm 183 W/m2
19:42 76.8 °F /  24.9 °C 61.9 °F /  16.6 °C 30.1in /  1018.6hPa Calm   3mph /  4.8km/h 60% 0in /  0.0mm 91 W/m2
19:47 76.6 °F /  24.8 °C 61.2 °F /  16.2 °C 30.1in /  1018.6hPa West 0.9mph /  1.4km/h 2mph /  3.2km/h 59% 0in /  0.0mm 58 W/m2
19:52 76.5 °F /  24.7 °C 61 °F /  16.1 °C 30.1in /  1018.6hPa WSW 2.9mph /  4.7km/h 4mph /  6.4km/h 59% 0in /  0.0mm 49 W/m2
19:57 76.3 °F /  24.6 °C 61.3 °F /  16.3 °C 30.1in /  1018.6hPa WSW 0.9mph /  1.4km/h 3mph /  4.8km/h 60% 0in /  0.0mm 51 W/m2
20:02 75.9 °F /  24.4 °C 59.5 °F /  15.3 °C 30.1in /  1018.6hPa WSW 2mph /  3.2km/h 4mph /  6.4km/h 57% 0in /  0.0mm 60 W/m2
20:07 75.9 °F /  24.4 °C 60.6 °F /  15.9 °C 30.1in /  1018.6hPa WSW 2mph /  3.2km/h 3mph /  4.8km/h 59% 0in /  0.0mm 67 W/m2
20:12 75.7 °F /  24.3 °C 59.9 °F /  15.5 °C 30.1in /  1018.6hPa West 2mph /  3.2km/h 4mph /  6.4km/h 58% 0in /  0.0mm 72 W/m2
20:17 75.7 °F /  24.3 °C 60.4 °F /  15.8 °C 30.1in /  1018.6hPa West 2.9mph /  4.7km/h 3mph /  4.8km/h 59% 0in /  0.0mm 65 W/m2
20:22 75.7 °F /  24.3 °C 60.4 °F /  15.8 °C 30.1in /  1018.6hPa West 0.9mph /  1.4km/h 3mph /  4.8km/h 59% 0in /  0.0mm 42 W/m2
20:27 75.6 °F /  24.2 °C 60.3 °F /  15.7 °C 30.1in /  1019.0hPa West 2mph /  3.2km/h 2mph /  3.2km/h 59% 0in /  0.0mm 33 W/m2
20:32 75.4 °F /  24.1 °C 60.4 °F /  15.8 °C 30.1in /  1019.0hPa Calm   2mph /  3.2km/h 60% 0in /  0.0mm 26 W/m2
20:37 75.4 °F /  24.1 °C 61.5 °F /  16.4 °C 30.1in /  1019.0hPa Calm     62% 0in /  0.0mm 23 W/m2
20:42 75.2 °F /  24 °C 61.7 °F /  16.5 °C 30.1in /  1019.0hPa Calm   1mph /  1.6km/h 63% 0in /  0.0mm 18 W/m2
20:47 75 °F /  23.9 °C 61.2 °F /  16.2 °C 30.1in /  1019.0hPa West 2mph /  3.2km/h 2mph /  3.2km/h 62% 0in /  0.0mm 18 W/m2
20:52 74.8 °F /  23.8 °C 61.9 °F /  16.6 °C 30.1in /  1019.0hPa West 0.9mph /  1.4km/h 2mph /  3.2km/h 64% 0in /  0.0mm 14 W/m2
20:57 74.7 °F /  23.7 °C 62.1 °F /  16.7 °C 30.1in /  1019.0hPa West 0.9mph /  1.4km/h 1mph /  1.6km/h 65% 0in /  0.0mm 12 W/m2
21:02 74.3 °F /  23.5 °C 61.7 °F /  16.5 °C 30.1in /  1019.0hPa Calm   2mph /  3.2km/h 65% 0in /  0.0mm 11 W/m2
21:07 73.8 °F /  23.2 °C 61.3 °F /  16.3 °C 30.1in /  1019.0hPa Calm     65% 0in /  0.0mm 7 W/m2
21:12 73.6 °F /  23.1 °C 61.5 °F /  16.4 °C 30.1in /  1019.0hPa Calm     66% 0in /  0.0mm 7 W/m2
21:17 73.2 °F /  22.9 °C 61.2 °F /  16.2 °C 30.1in /  1019.3hPa Calm     66% 0in /  0.0mm 5 W/m2
21:22 73 °F /  22.8 °C 61.5 °F /  16.4 °C 30.1in /  1019.3hPa Calm     67% 0in /  0.0mm 0 W/m2
21:27 73 °F /  22.8 °C 61.5 °F /  16.4 °C 30.1in /  1019.3hPa NW 2mph /  3.2km/h 4mph /  6.4km/h 67% 0in /  0.0mm 0 W/m2
21:32 72.9 °F /  22.7 °C 61.3 °F /  16.3 °C 30.1in /  1019.3hPa West 0.9mph /  1.4km/h 2mph /  3.2km/h 67% 0in /  0.0mm 0 W/m2
21:37 72.9 °F /  22.7 °C 61.7 °F /  16.5 °C 30.1in /  1019.3hPa WNW 2.9mph /  4.7km/h 4mph /  6.4km/h 68% 0in /  0.0mm 0 W/m2
21:42 73 °F /  22.8 °C 61.9 °F /  16.6 °C 30.1in /  1019.3hPa West 2mph /  3.2km/h 2mph /  3.2km/h 68% 0in /  0.0mm 0 W/m2
21:47 73 °F /  22.8 °C 61.9 °F /  16.6 °C 30.1in /  1019.3hPa WNW 2mph /  3.2km/h 3mph /  4.8km/h 68% 0in /  0.0mm 0 W/m2
21:52 73 °F /  22.8 °C 61.9 °F /  16.6 °C 30.1in /  1019.3hPa WNW 2.9mph /  4.7km/h 6mph /  9.7km/h 68% 0in /  0.0mm 0 W/m2
21:57 73 °F /  22.8 °C 61.9 °F /  16.6 °C 30.1in /  1019.6hPa West 2mph /  3.2km/h 4mph /  6.4km/h 68% 0in /  0.0mm 0 W/m2
22:02 73 °F /  22.8 °C 61.5 °F /  16.4 °C 30.1in /  1019.6hPa WSW 0.9mph /  1.4km/h 3mph /  4.8km/h 67% 0in /  0.0mm 0 W/m2
22:07 73 °F /  22.8 °C 61.5 °F /  16.4 °C 30.1in /  1019.6hPa WSW 2mph /  3.2km/h 4mph /  6.4km/h 67% 0in /  0.0mm 0 W/m2
22:12 73 °F /  22.8 °C 61.5 °F /  16.4 °C 30.1in /  1019.6hPa SW 2mph /  3.2km/h 4mph /  6.4km/h 67% 0in /  0.0mm 0 W/m2
22:17 73 °F /  22.8 °C 61.5 °F /  16.4 °C 30.1in /  1019.6hPa WSW 2.9mph /  4.7km/h 4mph /  6.4km/h 67% 0in /  0.0mm 0 W/m2
22:22 72.9 °F /  22.7 °C 61.3 °F /  16.3 °C 30.1in /  1019.6hPa West 2.9mph /  4.7km/h 5mph /  8km/h 67% 0in /  0.0mm 0 W/m2
22:27 72.9 °F /  22.7 °C 61.3 °F /  16.3 °C 30.1in /  1019.6hPa WSW 2.9mph /  4.7km/h 6mph /  9.7km/h 67% 0in /  0.0mm 0 W/m2
22:32 72.7 °F /  22.6 °C 61.2 °F /  16.2 °C 30.1in /  1019.6hPa WNW 2mph /  3.2km/h 3mph /  4.8km/h 67% 0in /  0.0mm 0 W/m2
22:37 72.5 °F /  22.5 °C 61.3 °F /  16.3 °C 30.1in /  1019.6hPa WNW 2mph /  3.2km/h 6mph /  9.7km/h 68% 0in /  0.0mm 0 W/m2
22:42 72.3 °F /  22.4 °C 61.2 °F /  16.2 °C 30.1in /  1019.6hPa WNW 2.9mph /  4.7km/h 6mph /  9.7km/h 68% 0in /  0.0mm 0 W/m2
22:47 72.1 °F /  22.3 °C 61.3 °F /  16.3 °C 30.1in /  1019.6hPa West 2mph /  3.2km/h 6mph /  9.7km/h 69% 0in /  0.0mm 0 W/m2
22:52 72 °F /  22.2 °C 61.2 °F /  16.2 °C 30.1in /  1019.6hPa West 2.9mph /  4.7km/h 6mph /  9.7km/h 69% 0in /  0.0mm 0 W/m2
22:57 71.8 °F /  22.1 °C 61 °F /  16.1 °C 30.1in /  1019.6hPa West 8.1mph /  13km/h 8mph /  12.9km/h 69% 0in /  0.0mm 0 W/m2
23:02 71.4 °F /  21.9 °C 60.8 °F /  16 °C 30.1in /  1019.6hPa West 2mph /  3.2km/h 7mph /  11.3km/h 69% 0in /  0.0mm 0 W/m2
23:07 71.2 °F /  21.8 °C 61 °F /  16.1 °C 30.1in /  1019.6hPa West 2.9mph /  4.7km/h 9mph /  14.5km/h 70% 0in /  0.0mm 0 W/m2
23:12 71.2 °F /  21.8 °C 61 °F /  16.1 °C 30.1in /  1019.6hPa West 2.9mph /  4.7km/h 7mph /  11.3km/h 70% 0in /  0.0mm 0 W/m2
23:17 70.9 °F /  21.6 °C 60.6 °F /  15.9 °C 30.1in /  1019.6hPa West 4mph /  6.4km/h 9mph /  14.5km/h 70% 0in /  0.0mm 0 W/m2
23:22 70.5 °F /  21.4 °C 60.6 °F /  15.9 °C 30.1in /  1019.6hPa West 4mph /  6.4km/h 9mph /  14.5km/h 71% 0in /  0.0mm 0 W/m2
23:27 70.5 °F /  21.4 °C 60.6 °F /  15.9 °C 30.1in /  1019.6hPa WNW 4mph /  6.4km/h 6mph /  9.7km/h 71% 0in /  0.0mm 0 W/m2
23:32 70.3 °F /  21.3 °C 60.4 °F /  15.8 °C 30.1in /  1019.6hPa West 2mph /  3.2km/h 9mph /  14.5km/h 71% 0in /  0.0mm 0 W/m2
23:37 70.2 °F /  21.2 °C 60.3 °F /  15.7 °C 30.1in /  1019.6hPa WNW 2.9mph /  4.7km/h 4mph /  6.4km/h 71% 0in /  0.0mm 0 W/m2
23:42 69.8 °F /  21 °C 60.4 °F /  15.8 °C 30.1in /  1019.6hPa West 2.9mph /  4.7km/h 6mph /  9.7km/h 72% 0in /  0.0mm 0 W/m2
23:47 69.4 °F /  20.8 °C 60.1 °F /  15.6 °C 30.1in /  1019.6hPa WSW 2mph /  3.2km/h 5mph /  8km/h 72% 0in /  0.0mm 0 W/m2
23:52 69.4 °F /  20.8 °C 60.1 °F /  15.6 °C 30.1in /  1019.6hPa West 2mph /  3.2km/h 2mph /  3.2km/h 72% 0in /  0.0mm 0 W/m2
23:57 69.3 °F /  20.7 °C 59.9 °F /  15.5 °C 30.1in /  1019.6hPa West 2mph /  3.2km/h 3mph /  4.8km/h 72% 0in /  0.0mm 0 W/m2
Juneau County Weather
Compliments of Weather Underground - 4 mb